Fisk, Missouri
Current Conditions -  °F | °C
As of 6:53 AM on Wednesday 22 Oct 2014 (Local Time) from KPOF Reporting Station
Clear Clear  
Wind Chill: 41°   Ceiling: Unl
Heat Index: 45°   Visibility: 10mi
Dew Point: 40°   Wind: 7mph
Humidity: 82%   Direction: 40°NE
Pressure: 30.24"   Gusts: NA
Location:  36.78°N, 90.21°W
Report Text: KPOF 221153Z AUTO 04006KT 10SM CLR 07/04 A3024 RMK AO2 SLP241 7//// T00720044 10106 20072 51018
Loading
Personal Weather Stations






























Interactive Weather Map
Tropical Storm Tracking
New forecast layout! Learn more

10-Day Weather Forecast

Advertisements
Track Severe Weather on mobile